Ucluelet, Canada
Current Conditions -  °F | °C
As of 5:00 PM on Thursday 18 Dec 2014 (Local Time) from CYAZ Reporting Station
Light Rain Light Rain  
Wind Chill: 41°   Ceiling: 1300
Heat Index: 48°   Visibility: 3mi
Dew Point: 46°   Wind: 20mph
Humidity: 93%   Direction: 130°SE
Pressure: 29.53"   Gusts: 30mph
Location:  48.94°N, 125.54°W
Report Text: CYAZ 190100Z 13017G26KT 3SM -RA BR SCT007 BKN013 OVC020 09/08 A2953 RMK SF3CF3SC2 LAST OBS/NEXT 191500UTC SLP000
Loading
Personal Weather Stations






























Interactive Weather Map New forecast layout! Learn more

10-Day Weather Forecast

Advertisements
Track Severe Weather on mobile